Time;durP1;ratioP1;P1;durP2;ratioP2;P2;SDS_P1;SDS_P2;PMS_P1;PMS_P2;Temp;Humidity;BMP_temperature;BMP_pressure;BME280_temperature;BME280_humidity;BME280_pressure;Samples;Min_cycle;Max_cycle;Signal;HPM_P1;HPM_P2
2021/04/11 05:41:21;;;;;;;;;;;;;;;;;;978173;23;20223;-83
2021/04/11 05:43:47;;;;;;;;;;;;;;;;;;5026701;28;19932;-87
2021/04/11 05:46:13;;;;;;;;;;;;;;;;;;5024252;28;19917;-87
2021/04/11 05:48:39;;;;;;;;;;;;;;;;;;5018874;28;19940;-87
2021/04/11 05:51:05;;;;;;;;;;;;;;;;;;5020574;28;20376;-88
2021/04/11 05:53:31;;;;;;;;;;;;;;;;;;5035907;28;19920;-88
2021/04/11 05:55:58;;;;;;;;;;;;;;;;;;5024759;28;19923;-88
2021/04/11 05:58:24;;;;;;;;;;;;;;;;;;5021290;28;19917;-88
2021/04/11 06:00:51;;;;;;;;;;;;;;;;;;5023781;28;20439;-88
2021/04/11 06:03:17;;;;;;;;;;;;;;;;;;5026733;28;20363;-88
2021/04/11 06:05:43;;;;;;;;;;;;;;;;;;5022255;28;19956;-88
2021/04/11 06:08:09;;;;;;;;;;;;;;;;;;5027107;28;19913;-88
2021/04/11 06:10:36;;;;;;;;;;;;;;;;;;5018335;28;20016;-89
2021/04/11 06:13:02;;;;;;;;;;;;;;;;;;5022608;28;19921;-88
2021/04/11 06:15:28;;;;;;;;;;;;;;;;;;5018284;28;20469;-88
2021/04/11 06:17:54;;;;;;;;;;;;;;;;;;5024592;28;19916;-87
2021/04/11 06:20:20;;;;;;;;;;;;;;;;;;5021993;28;19917;-86
2021/04/11 06:22:46;;;;;;;;;;;;;;;;;;5018764;28;20010;-86
2021/04/11 06:25:13;;;;;;;;;;;;;;;;;;5037103;28;19913;-86
2021/04/11 06:27:39;;;;;;;;;;;;;;;;;;5026040;28;20019;-85
2021/04/11 06:30:05;;;;;;;;;;;;;;;;;;5024289;28;19917;-86
2021/04/11 06:32:31;;;;;;;;;;;;;;;;;;5018676;28;20691;-85
2021/04/11 06:34:57;;;;;;;;;;;;;;;;;;5022727;28;20375;-86
2021/04/11 06:37:23;;;;;;;;;;;;;;;;;;5014888;28;19944;-86
2021/04/11 06:39:49;;;;;;;;;;;;;;;;;;5011700;28;20008;-87
2021/04/11 06:42:15;;;;;;;;;;;;;;;;;;5031940;28;19921;-86
2021/04/11 06:44:41;;;;;;;;;;;;;;;;;;5016959;28;20292;-86
2021/04/11 06:47:08;;;;;;;;;;;;;;;;;;5024123;28;20633;-87
2021/04/11 06:49:33;;;;;;;;;;;;;;;;;;5008712;28;19921;-86
2021/04/11 06:52:00;;;;;;;;;;;;;;;;;;5009650;28;20246;-86
2021/04/11 06:54:26;;;;;;;;;;;;;;;;;;5026709;28;19917;-86
2021/04/11 06:56:52;;;;;;;;;;;;;;;;;;5008844;28;19924;-86
2021/04/11 06:59:18;;;;;;;;;;;;;;;;;;5010787;28;19921;-85
2021/04/11 07:01:45;;;;;;;;;;;;;;;;;;5029101;28;19921;-87
2021/04/11 07:04:11;;;;;;;;;;;;;;;;;;5027332;28;20353;-86
2021/04/11 07:06:37;;;;;;;;;;;;;;;;;;5025127;28;19917;-86
2021/04/11 07:09:03;;;;;;;;;;;;;;;;;;5009238;28;19925;-86
2021/04/11 07:11:29;;;;;;;;;;;;;;;;;;5012238;28;19924;-86
2021/04/11 07:13:55;;;;;;;;;;;;;;;;;;5024527;28;19944;-87
2021/04/11 07:16:21;;;;;;;;;;;;;;;;;;5013653;28;19940;-87
2021/04/11 07:18:47;;;;;;;;;;;;;;;;;;5010203;28;20379;-86
2021/04/11 07:21:14;;;;;;;;;;;;;;;;;;5011594;28;19917;-88
2021/04/11 07:23:40;;;;;;;;;;;;;;;;;;5011018;28;19974;-86
2021/04/11 07:26:06;;;;;;;;;;;;;;;;;;5029025;28;19988;-88
2021/04/11 07:28:32;;;;;;;;;;;;;;;;;;5027800;28;20039;-88
2021/04/11 07:30:58;;;;;;;;;;;;;;;;;;5026009;28;19928;-87
2021/04/11 07:33:24;;;;;;;;;;;;;;;;;;5024632;28;19921;-88
2021/04/11 07:35:50;;;;;;;;;;;;;;;;;;5030270;28;19927;-88
2021/04/11 07:38:16;;;;;;;;;;;;;;;;;;5009115;28;19959;-89
2021/04/11 07:40:42;;;;;;;;;;;;;;;;;;5024391;28;19921;-89
2021/04/11 07:43:08;;;;;;;;;;;;;;;;;;5025870;28;19925;-90
2021/04/11 07:45:34;;;;;;;;;;;;;;;;;;5012952;28;19970;-88
2021/04/11 07:48:01;;;;;;;;;;;;;;;;;;5027727;28;19924;-91
2021/04/11 07:50:27;;;;;;;;;;;;;;;;;;5009150;28;19921;-90
2021/04/11 07:52:54;;;;;;;;;;;;;;;;;;5027592;28;19925;-91
2021/04/11 07:55:20;;;;;;;;;;;;;;;;;;5007177;28;20000;-91
2021/04/11 07:57:46;;;;;;;;;;;;;;;;;;5015778;28;20468;-91
2021/04/11 08:00:12;;;;;;;;;;;;;;;;;;5010358;28;19913;-92
2021/04/11 08:02:38;;;;;;;;;;;;;;;;;;5015643;28;19921;-91
2021/04/11 08:05:04;;;;;;;;;;;;;;;;;;5013457;28;20023;-91
2021/04/11 08:07:31;;;;;;;;;;;;;;;;;;5029211;28;20380;-88
2021/04/11 08:09:57;;;;;;;;;;;;;;;;;;5011623;28;19921;-89
2021/04/11 08:12:23;;;;;;;;;;;;;;;;;;5024776;28;19921;-88
2021/04/11 08:14:49;;;;;;;;;;;;;;;;;;5011475;28;19916;-88
2021/04/11 08:17:15;;;;;;;;;;;;;;;;;;5022674;28;19917;-89
2021/04/11 08:19:41;;;;;;;;;;;;;;;;;;5014148;28;20392;-88
2021/04/11 08:22:07;;;;;;;;;;;;;;;;;;5025595;28;19923;-89
2021/04/11 08:24:33;;;;;;;;;;;;;;;;;;5013782;28;19944;-88
2021/04/11 08:26:59;;;;;;;;;;;;;;;;;;5010858;28;19923;-89
2021/04/11 08:29:25;;;;;;;;;;;;;;;;;;5007782;28;20440;-89
2021/04/11 08:31:51;;;;;;;;;;;;;;;;;;5022707;28;19913;-91
2021/04/11 08:34:18;;;;;;;;;;;;;;;;;;5018321;28;19917;-91
2021/04/11 08:36:44;;;;;;;;;;;;;;;;;;5019246;28;19919;-90
2021/04/11 08:39:10;;;;;;;;;;;;;;;;;;5024944;28;19925;-91
2021/04/11 08:41:36;;;;;;;;;;;;;;;;;;5018046;28;20414;-91
2021/04/11 08:44:02;;;;;;;;;;;;;;;;;;5014158;28;19928;-91
2021/04/11 08:46:28;;;;;;;;;;;;;;;;;;5013692;28;19924;-91
2021/04/11 08:48:54;;;;;;;;;;;;;;;;;;5019607;28;19921;-90
2021/04/11 08:51:20;;;;;;;;;;;;;;;;;;5010802;28;19960;-91
2021/04/11 08:53:46;;;;;;;;;;;;;;;;;;5021315;28;20029;-90
2021/04/11 08:56:12;;;;;;;;;;;;;;;;;;5018352;28;19917;-90
2021/04/11 08:58:38;;;;;;;;;;;;;;;;;;5016946;28;19936;-89
2021/04/11 09:01:04;;;;;;;;;;;;;;;;;;5020430;28;19939;-90
2021/04/11 09:03:31;;;;;;;;;;;;;;;;;;5033963;28;19920;-91
2021/04/11 09:11:49;;;;;;;;;;;;;;;;;;5032545;28;20353;-92
2021/04/11 09:14:15;;;;;;;;;;;;;;;;;;5009298;28;19921;-93
2021/04/11 09:16:42;;;;;;;;;;;;;;;;;;5028284;28;19924;-92
2021/04/11 09:19:08;;;;;;;;;;;;;;;;;;5019839;28;19917;-92
2021/04/11 09:21:34;;;;;;;;;;;;;;;;;;5019888;28;21078;-92
2021/04/11 09:24:01;;;;;;;;;;;;;;;;;;5022413;28;19916;-92
2021/04/11 09:26:33;;;;;;;;;;;;;;;;;;5017958;28;19990;-92
2021/04/11 09:28:59;;;;;;;;;;;;;;;;;;5024396;28;19921;-93
2021/04/11 09:31:25;;;;;;;;;;;;;;;;;;5030810;28;20010;-92
2021/04/11 09:33:52;;;;;;;;;;;;;;;;;;5014503;28;19920;-92
2021/04/11 09:36:18;;;;;;;;;;;;;;;;;;5020674;28;19913;-91
2021/04/11 09:38:47;;;;;;;;;;;;;;;;;;5017372;28;19917;-92
2021/04/11 09:41:13;;;;;;;;;;;;;;;;;;5023128;28;19916;-92
2021/04/11 09:43:39;;;;;;;;;;;;;;;;;;5019199;28;19927;-92
2021/04/11 09:46:05;;;;;;;;;;;;;;;;;;5025475;28;19920;-93
2021/04/11 09:48:32;;;;;;;;;;;;;;;;;;5026905;28;19920;-91
2021/04/11 09:50:58;;;;;;;;;;;;;;;;;;5026670;28;19917;-91
2021/04/11 09:53:24;;;;;;;;;;;;;;;;;;5016563;28;19917;-92
2021/04/11 09:55:50;;;;;;;;;;;;;;;;;;5018696;28;19917;-91
2021/04/11 09:58:16;;;;;;;;;;;;;;;;;;5016524;28;19917;-91
2021/04/11 10:00:54;;;;;;;;;;;;;;;;;;5009841;28;19924;-90
2021/04/11 10:06:13;;;;;;;;;;;;;;;;;;5033616;28;19975;-89
2021/04/11 10:08:53;;;;;;;;;;;;;;;;;;;;;
2021/04/11 10:11:19;;;;;;;;;;;;;;;;;;5030507;28;19921;-91
2021/04/11 10:13:48;;;;;;;;;;;;;;;;;;5015065;28;19917;-91
2021/04/11 10:24:58;;;;;;;;;;;;;;;;;;5032886;28;19920;-90
2021/04/11 10:27:43;;;;;;;;;;;;;;;;;;5005294;28;19968;-91
2021/04/11 10:30:11;;;;;;;;;;;;;;;;;;5011114;28;19923;-91
2021/04/11 10:32:37;;;;;;;;;;;;;;;;;;5006681;28;19944;-92
2021/04/11 10:37:53;;;;;;;;;;;;;;;;;;5025333;28;19917;-92
2021/04/11 10:40:29;;;;;;;;;;;;;;;;;;5012312;28;19917;-89
2021/04/11 10:43:04;;;;;;;;;;;;;;;;;;5017818;28;19929;-91
2021/04/11 10:45:37;;;;;;;;;;;;;;;;;;5013105;28;20440;-91
2021/04/11 10:48:03;;;;;;;;;;;;;;;;;;5025148;28;20311;-90
2021/04/11 10:50:37;;;;;;;;;;;;;;;;;;5016804;28;19946;-90
2021/04/11 10:53:03;;;;;;;;;;;;;;;;;;5021388;28;19925;-91
2021/04/11 10:55:29;;;;;;;;;;;;;;;;;;5023076;28;19924;-90
2021/04/11 10:58:02;;;;;;;;;;;;;;;;;;5034608;28;20038;-91
2021/04/11 11:00:29;;;;;;;;;;;;;;;;;;5016467;28;19921;-90
2021/04/11 11:02:55;;;;;;;;;;;;;;;;;;5036299;28;19921;-91
2021/04/11 11:05:21;;;;;;;;;;;;;;;;;;5025424;28;19924;-91
2021/04/11 11:07:47;;;;;;;;;;;;;;;;;;5006815;28;19921;-90
2021/04/11 11:10:16;;;;;;;;;;;;;;;;;;5012488;28;20007;-90
2021/04/11 11:12:45;;;;;;;;;;;;;;;;;;5007848;28;19920;-90
2021/04/11 11:15:11;;;;;;;;;;;;;;;;;;5006845;28;20004;-90
2021/04/11 11:17:37;;;;;;;;;;;;;;;;;;5006166;28;19917;-92
2021/04/11 11:20:03;;;;;;;;;;;;;;;;;;5024527;28;19917;-92
2021/04/11 11:22:30;;;;;;;;;;;;;;;;;;5002273;28;20043;-89
2021/04/11 11:24:56;;;;;;;;;;;;;;;;;;5008221;28;19917;-89
2021/04/11 11:30:08;;;;;;;;;;;;;;;;;;5029943;28;20042;-92
2021/04/11 11:32:34;;;;;;;;;;;;;;;;;;5012206;28;19920;-90
2021/04/11 11:35:00;;;;;;;;;;;;;;;;;;5018153;28;19956;-91
2021/04/11 11:37:28;;;;;;;;;;;;;;;;;;5016555;28;20011;-90
2021/04/11 11:39:55;;;;;;;;;;;;;;;;;;5018402;28;19913;-90
2021/04/11 11:42:21;;;;;;;;;;;;;;;;;;5012545;28;19925;-90
2021/04/11 11:44:47;;;;;;;;;;;;;;;;;;5011439;28;19921;-91
2021/04/11 11:47:17;;;;;;;;;;;;;;;;;;5012047;28;19922;-89
2021/04/11 11:49:43;;;;;;;;;;;;;;;;;;5015752;28;19956;-90
2021/04/11 11:52:09;;;;;;;;;;;;;;;;;;5020551;28;19917;-87
2021/04/11 11:54:35;;;;;;;;;;;;;;;;;;5013929;28;19933;-91
2021/04/11 11:57:01;;;;;;;;;;;;;;;;;;5002791;28;19913;-91
2021/04/11 11:59:27;;;;;;;;;;;;;;;;;;5018243;28;19917;-90
2021/04/11 12:01:54;;;;;;;;;;;;;;;;;;5011483;28;20484;-90
2021/04/11 12:04:20;;;;;;;;;;;;;;;;;;5011928;28;19975;-91
2021/04/11 12:06:47;;;;;;;;;;;;;;;;;;5019214;28;20373;-91
2021/04/11 12:09:13;;;;;;;;;;;;;;;;;;5013786;28;19925;-88
2021/04/11 12:11:39;;;;;;;;;;;;;;;;;;5008810;28;19921;-91
2021/04/11 12:14:05;;;;;;;;;;;;;;;;;;5019578;28;19925;-91
2021/04/11 12:16:32;;;;;;;;;;;;;;;;;;5013875;28;19909;-89
2021/04/11 12:18:58;;;;;;;;;;;;;;;;;;5013541;28;20561;-89
2021/04/11 12:21:24;;;;;;;;;;;;;;;;;;5010354;28;19917;-91
2021/04/11 12:23:50;;;;;;;;;;;;;;;;;;5020349;28;20365;-92
2021/04/11 12:26:16;;;;;;;;;;;;;;;;;;5017292;28;19921;-90
2021/04/11 12:28:42;;;;;;;;;;;;;;;;;;5016979;28;19913;-93
2021/04/11 12:31:09;;;;;;;;;;;;;;;;;;5017692;28;19971;-91
2021/04/11 12:33:35;;;;;;;;;;;;;;;;;;5013996;28;19959;-90
2021/04/11 12:36:01;;;;;;;;;;;;;;;;;;5017657;28;19959;-91
2021/04/11 12:38:29;;;;;;;;;;;;;;;;;;5013701;28;20423;-92
2021/04/11 12:40:55;;;;;;;;;;;;;;;;;;5016003;28;19980;-90
2021/04/11 12:43:21;;;;;;;;;;;;;;;;;;5014567;28;19925;-90
2021/04/11 12:45:47;;;;;;;;;;;;;;;;;;5012029;28;19921;-91
2021/04/11 12:48:16;;;;;;;;;;;;;;;;;;5017370;28;19917;-89
2021/04/11 12:50:42;;;;;;;;;;;;;;;;;;5014878;28;19921;-88
2021/04/11 12:53:08;;;;;;;;;;;;;;;;;;5014758;28;19924;-89
2021/04/11 12:55:34;;;;;;;;;;;;;;;;;;5010697;28;19993;-90
2021/04/11 12:58:00;;;;;;;;;;;;;;;;;;5014357;28;19993;-91
2021/04/11 13:00:26;;;;;;;;;;;;;;;;;;5010466;28;19960;-90
2021/04/11 13:02:52;;;;;;;;;;;;;;;;;;5013264;28;19972;-89
2021/04/11 13:05:20;;;;;;;;;;;;;;;;;;5007954;28;19952;-88
2021/04/11 13:07:49;;;;;;;;;;;;;;;;;;5006011;28;20132;-89
2021/04/11 13:10:16;;;;;;;;;;;;;;;;;;5002962;28;19955;-91
2021/04/11 13:12:42;;;;;;;;;;;;;;;;;;5005740;28;20003;-90
2021/04/11 13:15:08;;;;;;;;;;;;;;;;;;5006648;28;20313;-91
2021/04/11 13:17:34;;;;;;;;;;;;;;;;;;4988484;28;21616;-89
2021/04/11 13:20:04;;;;;;;;;;;;;;;;;;5007690;28;19917;-89
2021/04/11 13:22:30;;;;;;;;;;;;;;;;;;5002706;28;19921;-91
2021/04/11 13:24:59;;;;;;;;;;;;;;;;;;5021011;28;19997;-91
2021/04/11 13:27:25;;;;;;;;;;;;;;;;;;5003477;28;19973;-91
2021/04/11 13:29:51;;;;;;;;;;;;;;;;;;5006483;28;19928;-88
2021/04/11 13:32:17;;;;;;;;;;;;;;;;;;5004735;28;20300;-89
2021/04/11 13:34:43;;;;;;;;;;;;;;;;;;5009844;28;19913;-89
2021/04/11 13:37:09;;;;;;;;;;;;;;;;;;5005343;28;19917;-90
2021/04/11 13:39:35;;;;;;;;;;;;;;;;;;5004378;28;19921;-89
2021/04/11 13:42:02;;;;;;;;;;;;;;;;;;5008076;28;19936;-89
2021/04/11 13:44:31;;;;;;;;;;;;;;;;;;4988569;28;20221;-91
2021/04/11 13:46:57;;;;;;;;;;;;;;;;;;5005479;28;20296;-90
2021/04/11 13:49:23;;;;;;;;;;;;;;;;;;5005281;28;20381;-91
2021/04/11 13:51:49;;;;;;;;;;;;;;;;;;5011514;28;20423;-90
2021/04/11 13:54:15;;;;;;;;;;;;;;;;;;5006463;28;19920;-90
2021/04/11 13:56:44;;;;;;;;;;;;;;;;;;5006306;28;19918;-91
2021/04/11 13:59:15;;;;;;;;;;;;;;;;;;5007681;28;19930;-89
2021/04/11 14:01:42;;;;;;;;;;;;;;;;;;5007123;28;20055;-89
2021/04/11 14:04:11;;;;;;;;;;;;;;;;;;5009754;28;19921;-90
2021/04/11 14:06:40;;;;;;;;;;;;;;;;;;5001247;28;19924;-90
2021/04/11 14:09:06;;;;;;;;;;;;;;;;;;5009232;28;19917;-88
2021/04/11 14:11:32;;;;;;;;;;;;;;;;;;5005426;28;19939;-89
2021/04/11 14:13:58;;;;;;;;;;;;;;;;;;5006816;28;19968;-91
2021/04/11 14:16:24;;;;;;;;;;;;;;;;;;5005048;28;19975;-89
2021/04/11 14:18:50;;;;;;;;;;;;;;;;;;5001872;28;19939;-88
2021/04/11 14:21:19;;;;;;;;;;;;;;;;;;5003776;28;19921;-90
2021/04/11 14:23:46;;;;;;;;;;;;;;;;;;5007558;28;19928;-90
2021/04/11 14:26:16;;;;;;;;;;;;;;;;;;5008038;28;19913;-89
2021/04/11 14:28:52;;;;;;;;;;;;;;;;;;;;;
2021/04/11 14:31:22;;;;;;;;;;;;;;;;;;5005566;28;19948;-89
2021/04/11 14:33:50;;;;;;;;;;;;;;;;;;5005697;28;19919;-89
2021/04/11 14:39:20;;;;;;;;;;;;;;;;;;5006488;28;19922;-88
2021/04/11 14:41:47;;;;;;;;;;;;;;;;;;5008812;28;19925;-88
2021/04/11 14:44:16;;;;;;;;;;;;;;;;;;5006545;28;19917;-89
2021/04/11 14:46:42;;;;;;;;;;;;;;;;;;5009748;28;20455;-89
2021/04/11 14:49:08;;;;;;;;;;;;;;;;;;5014724;28;19921;-89
2021/04/11 14:51:34;;;;;;;;;;;;;;;;;;5009048;28;20265;-91
2021/04/11 14:54:00;;;;;;;;;;;;;;;;;;5020995;28;19920;-90
2021/04/11 14:56:26;;;;;;;;;;;;;;;;;;5005237;28;19928;-88
2021/04/11 14:58:52;;;;;;;;;;;;;;;;;;5008929;28;19918;-89
2021/04/11 15:01:18;;;;;;;;;;;;;;;;;;5006793;28;19921;-90
2021/04/11 15:03:44;;;;;;;;;;;;;;;;;;5008905;28;19921;-89
2021/04/11 15:06:11;;;;;;;;;;;;;;;;;;5009526;28;20016;-90
2021/04/11 15:08:37;;;;;;;;;;;;;;;;;;5006007;28;19927;-91
2021/04/11 15:11:03;;;;;;;;;;;;;;;;;;5010047;28;19951;-91
2021/04/11 15:13:29;;;;;;;;;;;;;;;;;;5007474;28;19921;-91
2021/04/11 15:15:55;;;;;;;;;;;;;;;;;;5011213;28;19917;-91
2021/04/11 15:18:21;;;;;;;;;;;;;;;;;;5007810;28;20434;-91
2021/04/11 15:20:47;;;;;;;;;;;;;;;;;;4993183;28;19913;-91
2021/04/11 15:23:14;;;;;;;;;;;;;;;;;;5010873;28;20052;-91
2021/04/11 15:25:40;;;;;;;;;;;;;;;;;;5013435;28;20655;-91
2021/04/11 15:28:08;;;;;;;;;;;;;;;;;;5009674;28;19918;-90
2021/04/11 15:30:34;;;;;;;;;;;;;;;;;;5006500;28;22095;-89
2021/04/11 15:33:00;;;;;;;;;;;;;;;;;;5007646;28;19913;-90
2021/04/11 15:35:26;;;;;;;;;;;;;;;;;;5009559;28;19957;-90
2021/04/11 15:37:53;;;;;;;;;;;;;;;;;;5007547;28;19913;-90
2021/04/11 15:40:20;;;;;;;;;;;;;;;;;;5008858;28;19972;-92
2021/04/11 15:42:46;;;;;;;;;;;;;;;;;;5011607;28;19925;-93
2021/04/11 15:45:12;;;;;;;;;;;;;;;;;;5006456;28;19918;-91
2021/04/11 15:47:38;;;;;;;;;;;;;;;;;;5008124;28;19913;-91
2021/04/11 15:50:04;;;;;;;;;;;;;;;;;;5009210;28;19922;-89
2021/04/11 15:52:30;;;;;;;;;;;;;;;;;;4990215;28;19928;-92
2021/04/11 15:54:56;;;;;;;;;;;;;;;;;;4992340;28;19987;-92
2021/04/11 15:57:22;;;;;;;;;;;;;;;;;;5018374;28;19929;-89
2021/04/11 15:59:48;;;;;;;;;;;;;;;;;;5001211;28;19918;-90
2021/04/11 16:02:14;;;;;;;;;;;;;;;;;;5005123;28;19921;-91
2021/04/11 16:04:41;;;;;;;;;;;;;;;;;;5012337;28;19917;-91
2021/04/11 16:07:07;;;;;;;;;;;;;;;;;;5011162;28;20016;-93
2021/04/11 16:09:33;;;;;;;;;;;;;;;;;;5009546;28;19921;-92
2021/04/11 16:11:59;;;;;;;;;;;;;;;;;;5019242;28;19939;-91
2021/04/11 16:14:25;;;;;;;;;;;;;;;;;;5004023;28;20363;-90
2021/04/11 16:16:51;;;;;;;;;;;;;;;;;;5003697;28;19917;-92
2021/04/11 16:19:17;;;;;;;;;;;;;;;;;;5007283;28;19967;-89
2021/04/11 16:21:43;;;;;;;;;;;;;;;;;;5018473;28;19963;-88
2021/04/11 16:24:09;;;;;;;;;;;;;;;;;;5010388;28;19917;-89
2021/04/11 16:26:35;;;;;;;;;;;;;;;;;;5007982;28;19921;-88
2021/04/11 16:29:02;;;;;;;;;;;;;;;;;;5008251;28;20698;-90
2021/04/11 16:31:28;;;;;;;;;;;;;;;;;;5009111;28;19948;-91
2021/04/11 16:33:54;;;;;;;;;;;;;;;;;;5010971;28;19984;-89
2021/04/11 16:36:20;;;;;;;;;;;;;;;;;;4992287;28;19917;-88
2021/04/11 16:38:46;;;;;;;;;;;;;;;;;;5006233;28;20496;-87
2021/04/11 16:41:12;;;;;;;;;;;;;;;;;;5013956;28;20004;-88
2021/04/11 16:43:39;;;;;;;;;;;;;;;;;;5011321;28;19936;-90
2021/04/11 16:46:05;;;;;;;;;;;;;;;;;;5011387;28;20008;-87
2021/04/11 16:48:31;;;;;;;;;;;;;;;;;;5008319;28;19921;-87
2021/04/11 16:50:57;;;;;;;;;;;;;;;;;;5004570;28;19948;-87
2021/04/11 16:53:23;;;;;;;;;;;;;;;;;;5003102;28;19949;-87
2021/04/11 16:55:49;;;;;;;;;;;;;;;;;;5007971;28;19917;-86
2021/04/11 16:58:17;;;;;;;;;;;;;;;;;;5012621;28;19921;-86
2021/04/11 17:00:46;;;;;;;;;;;;;;;;;;5010596;28;19936;-86
2021/04/11 17:03:12;;;;;;;;;;;;;;;;;;5007801;28;19943;-85
2021/04/11 17:05:40;;;;;;;;;;;;;;;;;;5008847;28;19943;-86
2021/04/11 17:08:20;;;;;;;;;;;;;;;;;;5015222;28;19917;-86
2021/04/11 17:10:47;;;;;;;;;;;;;;;;;;4995686;28;19921;-86
2021/04/11 17:13:13;;;;;;;;;;;;;;;;;;4996704;28;19921;-86
2021/04/11 17:15:55;;;;;;;;;;;;;;;;;;5002246;28;20786;-86
2021/04/11 17:18:24;;;;;;;;;;;;;;;;;;5000727;28;19976;-84
2021/04/11 17:21:00;;;;;;;;;;;;;;;;;;;;;
2021/04/11 17:23:27;;;;;;;;;;;;;;;;;;5003471;28;19917;-86
2021/04/11 17:25:53;;;;;;;;;;;;;;;;;;5014193;28;19918;-86
2021/04/11 17:28:22;;;;;;;;;;;;;;;;;;5011259;28;19971;-86
2021/04/11 17:30:58;;;;;;;;;;;;;;;;;;;;;
2021/04/11 17:33:40;;;;;;;;;;;;;;;;;;5009909;28;19917;-86
2021/04/11 17:39:00;;;;;;;;;;;;;;;;;;5010420;28;20275;-86
2021/04/11 17:41:32;;;;;;;;;;;;;;;;;;5006196;28;19920;-86
2021/04/11 17:44:07;;;;;;;;;;;;;;;;;;5011975;28;19933;-86
2021/04/11 17:46:36;;;;;;;;;;;;;;;;;;5015819;28;19959;-86
2021/04/11 17:49:16;;;;;;;;;;;;;;;;;;;;;
2021/04/11 17:51:45;;;;;;;;;;;;;;;;;;5033056;28;20287;-87
2021/04/11 17:54:19;;;;;;;;;;;;;;;;;;5026257;28;19997;-87
2021/04/11 17:59:46;;;;;;;;;;;;;;;;;;5031085;28;20304;-88
2021/04/11 18:02:12;;;;;;;;;;;;;;;;;;5015246;28;19921;-89
2021/04/11 18:04:38;;;;;;;;;;;;;;;;;;5031341;28;19921;-88
2021/04/11 18:07:05;;;;;;;;;;;;;;;;;;5016704;28;19923;-88
2021/04/11 18:09:34;;;;;;;;;;;;;;;;;;5029389;28;20043;-88
2021/04/11 18:12:00;;;;;;;;;;;;;;;;;;5009480;28;19921;-88
2021/04/11 18:14:28;;;;;;;;;;;;;;;;;;5014790;28;20276;-88
2021/04/11 18:19:49;;;;;;;;;;;;;;;;;;5026456;28;19963;-89
2021/04/11 18:22:16;;;;;;;;;;;;;;;;;;5010918;28;19924;-86
2021/04/11 18:24:48;;;;;;;;;;;;;;;;;;5011853;28;19921;-88
2021/04/11 18:27:25;;;;;;;;;;;;;;;;;;5029278;28;19923;-88
2021/04/11 18:29:58;;;;;;;;;;;;;;;;;;5020243;28;20614;-88
2021/04/11 18:32:34;;;;;;;;;;;;;;;;;;5009449;28;20311;-88
2021/04/11 18:35:03;;;;;;;;;;;;;;;;;;5017371;28;19964;-87
2021/04/11 18:37:29;;;;;;;;;;;;;;;;;;5011701;28;19921;-88
2021/04/11 18:39:55;;;;;;;;;;;;;;;;;;5032232;28;20356;-88
2021/04/11 18:42:21;;;;;;;;;;;;;;;;;;5016435;28;20074;-89
2021/04/11 18:44:51;;;;;;;;;;;;;;;;;;5007710;28;19917;-89
2021/04/11 18:47:18;;;;;;;;;;;;;;;;;;5006818;28;19945;-88
2021/04/11 18:49:46;;;;;;;;;;;;;;;;;;5021449;28;19925;-89
2021/04/11 18:55:18;;;;;;;;;;;;;;;;;;5013412;28;19922;-89
2021/04/11 19:00:38;;;;;;;;;;;;;;;;;;5028736;28;19943;-89
2021/04/11 19:03:13;;;;;;;;;;;;;;;;;;5019401;28;19917;-88
2021/04/11 19:05:58;;;;;;;;;;;;;;;;;;5032012;28;19917;-89
2021/04/11 19:08:27;;;;;;;;;;;;;;;;;;5013524;28;19978;-88
2021/04/11 19:11:06;;;;;;;;;;;;;;;;;;;;;
2021/04/11 19:13:32;;;;;;;;;;;;;;;;;;4950684;28;19918;-89
2021/04/11 19:15:58;;;;;;;;;;;;;;;;;;5017535;28;20372;-88
2021/04/11 19:18:27;;;;;;;;;;;;;;;;;;5013047;28;20019;-89
2021/04/11 19:20:53;;;;;;;;;;;;;;;;;;5022035;28;19921;-89
2021/04/11 19:23:21;;;;;;;;;;;;;;;;;;5011264;28;19999;-88
2021/04/11 19:25:47;;;;;;;;;;;;;;;;;;5011088;28;20624;-89
2021/04/11 19:28:13;;;;;;;;;;;;;;;;;;5013792;28;20063;-89
2021/04/11 19:30:40;;;;;;;;;;;;;;;;;;5017227;28;19925;-89
2021/04/11 19:33:07;;;;;;;;;;;;;;;;;;5016180;28;19914;-89
2021/04/11 19:35:33;;;;;;;;;;;;;;;;;;5015218;28;19955;-89
2021/04/11 19:37:59;;;;;;;;;;;;;;;;;;5016325;28;19917;-89
2021/04/11 19:40:25;;;;;;;;;;;;;;;;;;5009883;28;19921;-89
2021/04/11 19:42:54;;;;;;;;;;;;;;;;;;5018911;28;19925;-88
2021/04/11 19:45:25;;;;;;;;;;;;;;;;;;5013453;28;19956;-88
2021/04/11 19:47:52;;;;;;;;;;;;;;;;;;5021132;28;19921;-88
2021/04/11 19:50:19;;;;;;;;;;;;;;;;;;5028965;28;19917;-88
2021/04/11 19:52:51;;;;;;;;;;;;;;;;;;5038010;28;19936;-88
2021/04/11 19:55:17;;;;;;;;;;;;;;;;;;5019045;28;19985;-89
2021/04/11 19:57:43;;;;;;;;;;;;;;;;;;5028819;28;19924;-88
2021/04/11 20:00:09;;;;;;;;;;;;;;;;;;5019814;28;19923;-88
2021/04/11 20:02:35;;;;;;;;;;;;;;;;;;5025650;28;19971;-89
2021/04/11 20:05:03;;;;;;;;;;;;;;;;;;5023374;28;19928;-88
2021/04/11 20:07:29;;;;;;;;;;;;;;;;;;5023688;28;19917;-87
2021/04/11 20:09:57;;;;;;;;;;;;;;;;;;5042319;28;19928;-88
2021/04/11 20:12:23;;;;;;;;;;;;;;;;;;5030408;28;19960;-89
2021/04/11 20:14:59;;;;;;;;;;;;;;;;;;5043155;28;20275;-87
2021/04/11 20:17:25;;;;;;;;;;;;;;;;;;5035808;28;19921;-87
2021/04/11 20:19:57;;;;;;;;;;;;;;;;;;5032238;28;19920;-88
2021/04/11 20:22:23;;;;;;;;;;;;;;;;;;5029944;28;19913;-87
2021/04/11 20:24:49;;;;;;;;;;;;;;;;;;5033364;28;19935;-88
2021/04/11 20:27:17;;;;;;;;;;;;;;;;;;5030600;28;19913;-89
2021/04/11 20:29:44;;;;;;;;;;;;;;;;;;5062956;28;19921;-88
2021/04/11 20:32:14;;;;;;;;;;;;;;;;;;5040626;28;19920;-87
2021/04/11 20:34:40;;;;;;;;;;;;;;;;;;5037809;28;19921;-88
2021/04/11 20:37:11;;;;;;;;;;;;;;;;;;5053043;28;19913;-87
2021/04/11 20:39:42;;;;;;;;;;;;;;;;;;5058768;28;19913;-87
2021/04/11 20:44:53;;;;;;;;;;;;;;;;;;5044503;28;19921;-88
2021/04/11 20:50:05;;;;;;;;;;;;;;;;;;5041092;28;19932;-89
2021/04/11 20:52:35;;;;;;;;;;;;;;;;;;5044269;28;19924;-87
2021/04/11 20:55:22;;;;;;;;;;;;;;;;;;5035343;28;19909;-86
2021/04/11 21:17:09;;;;;;;;;;;;;;;;;;5169363;23;19929;-86
2021/04/11 21:19:39;;;;;;;;;;;;;;;;;;5013295;28;19928;-86
2021/04/11 21:22:06;;;;;;;;;;;;;;;;;;5037592;28;19924;-87
2021/04/11 21:24:34;;;;;;;;;;;;;;;;;;5022693;28;19917;-86
2021/04/11 21:32:52;;;;;;;;;;;;;;;;;;5047108;28;19924;-87
2021/04/11 21:38:15;;;;;;;;;;;;;;;;;;5440491;23;19929;-85
2021/04/11 21:40:44;;;;;;;;;;;;;;;;;;5040574;28;19913;-85
